Crown Princess — ZCDM6 — position and weather

sailwx.info

Track history (hours):
 
Tides and Currents Weather Stations Pressure Air Temp Water Temp Dewpoint Dewpoint Depression Visibility Wind Speed Wind Dir Waves Ship Positions

Crown Princess

Last reported at 2016-May-27 21:33 UTC. Time now 2016-May-27 22:04 UTC.
Position N 48°29' W 124°60'.

Type: Ship. MMSI: 310500000.

Date/timePositionNaut miles runAvg speedWind from/ knotsBaromVisibWave heightAir tempDewpointWater temp
2016-May-27 21:33N 48°29' W 124°60'2020.0
2016-May-27 20:33N 48°35' W 125°28'2120.9
2016-May-27 19:33N 48°46' W 125°56'2120.7
2016-May-27 18:34N 48°58' W 126°21'3 4.8
2016-May-27 18:00N 49°00' W 126°24'2045.9 260 / 141021.527.0 0.511.5 6.710.0
2016-May-27 17:34N 49°12' W 126°48'2523.7
2016-May-27 16:31N 49°28' W 127°18'12121.9
2016-May-27 11:00N 50°54' W 129°30'34412.3 280 / 191023.910.8 10.2 4.712.0
2016-May-26 07:00N 56°00' W 133°54'13820.3 180 / 61021.810.8 9.5 8.1 8.0
2016-May-26 00:11N 58°10' W 135°19'1218.6
2016-May-25 23:33N 58°16' W 135°39'1515.4
2016-May-25 22:33N 58°26' W 136°00'1514.8
2016-May-25 21:33N 58°40' W 136°10'2415.4
2016-May-25 20:00N 58°48' W 136°54'19 4.1 250 / 51020.310.8 9.0 5.7 9.5
2016-May-25 15:21N 58°45' W 136°18'1418.2
2016-May-25 14:33N 58°32' W 136°04'1212.2
2016-May-25 13:33N 58°21' W 135°57'1413.7
2016-May-25 12:33N 58°16' W 135°33'40 1.0
2016-May-23 20:00N 58°12' W 134°18'58917.6 280 / 81014.610.8 13.0 7.9 9.0
2016-May-22 10:33N 49°22' W 127°02'2020.3
2016-May-22 09:33N 49°09' W 126°38'2221.8
2016-May-22 08:33N 48°57' W 126°11'2222.4
2016-May-22 07:33N 48°44' W 125°43'2322.5
2016-May-22 06:33N 48°32' W 125°15'5121.3
2016-May-22 04:11N 48°19' W 124°01'1522.6
2016-May-22 03:31N 48°16' W 123°39'1515.5
2016-May-22 02:33N 48°10' W 123°18'1919.3
2016-May-22 01:33N 48°11' W 122°49'1818.2
2016-May-22 00:33N 47°57' W 122°32'1918.8
2016-May-21 23:33N 47°39' W 122°26'2 2.3
2016-May-21 22:31N 47°38' W 122°23'0 0.0
2016-May-21 21:33N 47°38' W 122°23'0 0.0
2016-May-21 20:33N 47°38' W 122°23'0 0.0
2016-May-21 19:33N 47°38' W 122°23'0 0.0
2016-May-21 18:32N 47°38' W 122°23'0 0.0
2016-May-21 17:33N 47°38' W 122°23'0 0.0
2016-May-21 16:32N 47°38' W 122°23'0 0.0
2016-May-21 15:32N 47°38' W 122°23'0 0.0
2016-May-21 14:33N 47°38' W 122°23'0 0.0
2016-May-21 13:33N 47°38' W 122°23'4 3.7
2016-May-21 12:33N 47°39' W 122°28'1414.1
2016-May-21 11:34N 47°53' W 122°29'1414.0
2016-May-21 10:33N 48°05' W 122°40'1514.9
2016-May-21 09:34N 48°12' W 122°60'1414.0
2016-May-21 08:32N 48°11' W 123°21'8 8.0
2016-May-21 07:34N 48°16' W 123°29'9 8.7
2016-May-21 06:33N 48°23' W 123°21'1211.7
2016-May-21 05:33N 48°34' W 123°13'1414.0
2016-May-21 04:33N 48°46' W 123°03'1515.1
2016-May-21 03:33N 48°58' W 123°17'1515.0
2016-May-21 02:33N 49°09' W 123°32'1212.4
2016-May-21 01:34N 49°18' W 123°19'8 7.8
2016-May-21 00:33N 49°17' W 123°07'0 0.0
2016-May-20 23:32N 49°17' W 123°07'0 0.0
2016-May-20 22:28N 49°17' W 123°07'0 0.0
2016-May-20 21:31N 49°17' W 123°07'0 0.0
2016-May-20 20:33N 49°17' W 123°07'0 0.0
2016-May-20 19:33N 49°17' W 123°07'0 0.0
2016-May-20 18:33N 49°17' W 123°07'0 0.0
2016-May-20 17:32N 49°17' W 123°07'0 0.0
2016-May-20 16:32N 49°17' W 123°07'0 0.0
2016-May-20 15:31N 49°17' W 123°07'0 0.0
2016-May-20 14:31N 49°17' W 123°07'0 0.0
2016-May-20 13:33N 49°17' W 123°07'0 0.3
2016-May-20 12:33N 49°18' W 123°06'1110.6
2016-May-20 11:33N 49°18' W 123°22'1615.8
2016-May-20 10:33N 49°19' W 123°47'1616.3
2016-May-20 09:34N 49°24' W 124°11'1717.0
2016-May-20 08:33N 49°32' W 124°33'2019.9
2016-May-20 07:33N 49°47' W 124°54'1918.4
2016-May-20 06:33N 50°01' W 125°13'1514.7
2016-May-20 05:32N 50°14' W 125°23'6415.6
2016-May-20 01:26N 50°41' W 126°54'1516.7
2016-May-20 00:33N 50°47' W 127°16'1616.1
2016-May-19 23:33N 50°54' W 127°39'1313.5
2016-May-19 22:34N 51°03' W 127°55'1615.0
2016-May-19 21:31N 51°11' W 128°16'  
Track history (hours):
 
Tides and Currents Weather Stations Pressure Air Temp Water Temp Dewpoint Dewpoint Depression Visibility Wind Speed Wind Dir Waves Ship Positions

Crown Princess

Last reported at 2016-May-27 21:33 UTC. Time now 2016-May-27 22:04 UTC.
Position N 48°29' W 124°60'.

Type: Ship. MMSI: 310500000.

Date/timePositionNaut miles runAvg speedWind from/ knotsBaromVisibWave heightAir tempDewpointWater temp
2016-May-27 21:33N 48°29' W 124°60'2020.0
2016-May-27 20:33N 48°35' W 125°28'2120.9
2016-May-27 19:33N 48°46' W 125°56'2120.7
2016-May-27 18:34N 48°58' W 126°21'3 4.8
2016-May-27 18:00N 49°00' W 126°24'2045.9 260 / 141021.527.0 0.511.5 6.710.0
2016-May-27 17:34N 49°12' W 126°48'2523.7
2016-May-27 16:31N 49°28' W 127°18'12121.9
2016-May-27 11:00N 50°54' W 129°30'34412.3 280 / 191023.910.8 10.2 4.712.0
2016-May-26 07:00N 56°00' W 133°54'13820.3 180 / 61021.810.8 9.5 8.1 8.0
2016-May-26 00:11N 58°10' W 135°19'1218.6
2016-May-25 23:33N 58°16' W 135°39'1515.4
2016-May-25 22:33N 58°26' W 136°00'1514.8
2016-May-25 21:33N 58°40' W 136°10'2415.4
2016-May-25 20:00N 58°48' W 136°54'19 4.1 250 / 51020.310.8 9.0 5.7 9.5
2016-May-25 15:21N 58°45' W 136°18'1418.2
2016-May-25 14:33N 58°32' W 136°04'1212.2
2016-May-25 13:33N 58°21' W 135°57'1413.7
2016-May-25 12:33N 58°16' W 135°33'40 1.0
2016-May-23 20:00N 58°12' W 134°18'58917.6 280 / 81014.610.8 13.0 7.9 9.0
2016-May-22 10:33N 49°22' W 127°02'2020.3
2016-May-22 09:33N 49°09' W 126°38'2221.8
2016-May-22 08:33N 48°57' W 126°11'2222.4
2016-May-22 07:33N 48°44' W 125°43'2322.5
2016-May-22 06:33N 48°32' W 125°15'5121.3
2016-May-22 04:11N 48°19' W 124°01'1522.6
2016-May-22 03:31N 48°16' W 123°39'1515.5
2016-May-22 02:33N 48°10' W 123°18'1919.3
2016-May-22 01:33N 48°11' W 122°49'1818.2
2016-May-22 00:33N 47°57' W 122°32'1918.8
2016-May-21 23:33N 47°39' W 122°26'2 2.3
2016-May-21 22:31N 47°38' W 122°23'0 0.0
2016-May-21 21:33N 47°38' W 122°23'0 0.0
2016-May-21 20:33N 47°38' W 122°23'0 0.0
2016-May-21 19:33N 47°38' W 122°23'0 0.0
2016-May-21 18:32N 47°38' W 122°23'0 0.0
2016-May-21 17:33N 47°38' W 122°23'0 0.0
2016-May-21 16:32N 47°38' W 122°23'0 0.0
2016-May-21 15:32N 47°38' W 122°23'0 0.0
2016-May-21 14:33N 47°38' W 122°23'0 0.0
2016-May-21 13:33N 47°38' W 122°23'4 3.7
2016-May-21 12:33N 47°39' W 122°28'1414.1
2016-May-21 11:34N 47°53' W 122°29'1414.0
2016-May-21 10:33N 48°05' W 122°40'1514.9
2016-May-21 09:34N 48°12' W 122°60'1414.0
2016-May-21 08:32N 48°11' W 123°21'8 8.0
2016-May-21 07:34N 48°16' W 123°29'9 8.7
2016-May-21 06:33N 48°23' W 123°21'1211.7
2016-May-21 05:33N 48°34' W 123°13'1414.0
2016-May-21 04:33N 48°46' W 123°03'1515.1
2016-May-21 03:33N 48°58' W 123°17'1515.0
2016-May-21 02:33N 49°09' W 123°32'1212.4
2016-May-21 01:34N 49°18' W 123°19'8 7.8
2016-May-21 00:33N 49°17' W 123°07'0 0.0
2016-May-20 23:32N 49°17' W 123°07'0 0.0
2016-May-20 22:28N 49°17' W 123°07'0 0.0
2016-May-20 21:31N 49°17' W 123°07'0 0.0
2016-May-20 20:33N 49°17' W 123°07'0 0.0
2016-May-20 19:33N 49°17' W 123°07'0 0.0
2016-May-20 18:33N 49°17' W 123°07'0 0.0
2016-May-20 17:32N 49°17' W 123°07'0 0.0
2016-May-20 16:32N 49°17' W 123°07'0 0.0
2016-May-20 15:31N 49°17' W 123°07'0 0.0
2016-May-20 14:31N 49°17' W 123°07'0 0.0
2016-May-20 13:33N 49°17' W 123°07'0 0.3
2016-May-20 12:33N 49°18' W 123°06'1110.6
2016-May-20 11:33N 49°18' W 123°22'1615.8
2016-May-20 10:33N 49°19' W 123°47'1616.3
2016-May-20 09:34N 49°24' W 124°11'1717.0
2016-May-20 08:33N 49°32' W 124°33'2019.9
2016-May-20 07:33N 49°47' W 124°54'1918.4
2016-May-20 06:33N 50°01' W 125°13'1514.7
2016-May-20 05:32N 50°14' W 125°23'6415.6
2016-May-20 01:26N 50°41' W 126°54'1516.7
2016-May-20 00:33N 50°47' W 127°16'1616.1
2016-May-19 23:33N 50°54' W 127°39'1313.5
2016-May-19 22:34N 51°03' W 127°55'1615.0
2016-May-19 21:31N 51°11' W 128°16'  

Dump ship's entire track history